sensor_id;sensor_type;location;lat;lon;timestamp;P1;durP1;ratioP1;P2;durP2;ratioP2
33740;SDS011;20065;48.380;10.892;2022-12-29T00:01:54;3.88;;;2.00;;
33740;SDS011;20065;48.380;10.892;2022-12-29T00:04:40;4.38;;;1.90;;
33740;SDS011;20065;48.380;10.892;2022-12-29T00:07:27;3.50;;;1.80;;
33740;SDS011;20065;48.380;10.892;2022-12-29T00:10:13;5.38;;;2.25;;
33740;SDS011;20065;48.380;10.892;2022-12-29T00:13:01;6.00;;;2.13;;
33740;SDS011;20065;48.380;10.892;2022-12-29T00:16:06;5.65;;;2.20;;
33740;SDS011;20065;48.380;10.892;2022-12-29T00:18:56;5.25;;;2.00;;
33740;SDS011;20065;48.380;10.892;2022-12-29T00:21:42;5.07;;;2.45;;
33740;SDS011;20065;48.380;10.892;2022-12-29T00:24:47;6.82;;;2.78;;
33740;SDS011;20065;48.380;10.892;2022-12-29T00:27:52;3.30;;;1.90;;
33740;SDS011;20065;48.380;10.892;2022-12-29T00:31:00;4.57;;;2.33;;
33740;SDS011;20065;48.380;10.892;2022-12-29T00:34:06;3.75;;;1.70;;
33740;SDS011;20065;48.380;10.892;2022-12-29T00:37:14;4.55;;;2.30;;
33740;SDS011;20065;48.380;10.892;2022-12-29T00:40:03;4.22;;;2.15;;
33740;SDS011;20065;48.380;10.892;2022-12-29T00:43:11;4.40;;;2.10;;
33740;SDS011;20065;48.380;10.892;2022-12-29T00:46:16;5.93;;;2.20;;
33740;SDS011;20065;48.380;10.892;2022-12-29T00:49:06;3.83;;;2.15;;
33740;SDS011;20065;48.380;10.892;2022-12-29T00:52:12;5.30;;;2.55;;
33740;SDS011;20065;48.380;10.892;2022-12-29T00:55:02;3.85;;;2.00;;
33740;SDS011;20065;48.380;10.892;2022-12-29T00:57:51;6.20;;;2.53;;
33740;SDS011;20065;48.380;10.892;2022-12-29T01:00:38;5.07;;;2.10;;
33740;SDS011;20065;48.380;10.892;2022-12-29T01:03:24;5.25;;;1.90;;
33740;SDS011;20065;48.380;10.892;2022-12-29T01:06:13;6.30;;;2.17;;
33740;SDS011;20065;48.380;10.892;2022-12-29T01:09:02;4.15;;;1.70;;
33740;SDS011;20065;48.380;10.892;2022-12-29T01:12:08;3.38;;;1.55;;
33740;SDS011;20065;48.380;10.892;2022-12-29T01:15:00;4.22;;;2.38;;
33740;SDS011;20065;48.380;10.892;2022-12-29T01:17:46;5.68;;;2.08;;
33740;SDS011;20065;48.380;10.892;2022-12-29T01:20:36;4.03;;;1.95;;
33740;SDS011;20065;48.380;10.892;2022-12-29T01:23:24;3.92;;;1.50;;
33740;SDS011;20065;48.380;10.892;2022-12-29T01:26:10;4.07;;;1.63;;
33740;SDS011;20065;48.380;10.892;2022-12-29T01:29:07;4.45;;;1.75;;
33740;SDS011;20065;48.380;10.892;2022-12-29T01:31:53;3.40;;;1.58;;
33740;SDS011;20065;48.380;10.892;2022-12-29T01:34:39;2.80;;;1.27;;
33740;SDS011;20065;48.380;10.892;2022-12-29T01:37:25;3.63;;;1.40;;
33740;SDS011;20065;48.380;10.892;2022-12-29T01:40:11;4.70;;;1.73;;
33740;SDS011;20065;48.380;10.892;2022-12-29T01:42:58;3.30;;;1.20;;
33740;SDS011;20065;48.380;10.892;2022-12-29T01:45:45;4.80;;;1.60;;
33740;SDS011;20065;48.380;10.892;2022-12-29T01:48:39;3.65;;;1.45;;
33740;SDS011;20065;48.380;10.892;2022-12-29T01:51:29;4.65;;;1.38;;
33740;SDS011;20065;48.380;10.892;2022-12-29T01:54:20;3.90;;;1.42;;
33740;SDS011;20065;48.380;10.892;2022-12-29T01:57:23;3.97;;;1.40;;
33740;SDS011;20065;48.380;10.892;2022-12-29T02:00:13;3.70;;;1.20;;
33740;SDS011;20065;48.380;10.892;2022-12-29T02:03:00;3.00;;;1.40;;
33740;SDS011;20065;48.380;10.892;2022-12-29T02:05:54;2.72;;;1.20;;
33740;SDS011;20065;48.380;10.892;2022-12-29T02:08:49;3.88;;;1.50;;
33740;SDS011;20065;48.380;10.892;2022-12-29T02:11:38;2.50;;;1.00;;
33740;SDS011;20065;48.380;10.892;2022-12-29T02:14:24;4.05;;;1.23;;
33740;SDS011;20065;48.380;10.892;2022-12-29T02:17:20;4.78;;;1.17;;
33740;SDS011;20065;48.380;10.892;2022-12-29T02:23:53;4.45;;;1.20;;
33740;SDS011;20065;48.380;10.892;2022-12-29T02:36:45;3.95;;;1.30;;
33740;SDS011;20065;48.380;10.892;2022-12-29T02:39:35;4.30;;;1.30;;
33740;SDS011;20065;48.380;10.892;2022-12-29T02:48:20;3.85;;;1.20;;
33740;SDS011;20065;48.380;10.892;2022-12-29T02:51:36;3.05;;;1.23;;
33740;SDS011;20065;48.380;10.892;2022-12-29T02:54:38;2.88;;;1.20;;
33740;SDS011;20065;48.380;10.892;2022-12-29T02:57:31;3.33;;;1.40;;
33740;SDS011;20065;48.380;10.892;2022-12-29T03:00:21;4.40;;;1.40;;
33740;SDS011;20065;48.380;10.892;2022-12-29T03:03:16;3.58;;;1.23;;
33740;SDS011;20065;48.380;10.892;2022-12-29T03:06:19;3.08;;;1.40;;
33740;SDS011;20065;48.380;10.892;2022-12-29T03:19:19;3.92;;;1.20;;
33740;SDS011;20065;48.380;10.892;2022-12-29T03:22:21;4.93;;;1.38;;
33740;SDS011;20065;48.380;10.892;2022-12-29T03:25:33;2.88;;;1.30;;
33740;SDS011;20065;48.380;10.892;2022-12-29T03:28:32;2.55;;;0.98;;
33740;SDS011;20065;48.380;10.892;2022-12-29T03:31:26;3.20;;;1.00;;
33740;SDS011;20065;48.380;10.892;2022-12-29T03:34:13;3.55;;;1.30;;
33740;SDS011;20065;48.380;10.892;2022-12-29T03:37:10;3.30;;;1.20;;
33740;SDS011;20065;48.380;10.892;2022-12-29T03:39:59;2.85;;;1.25;;
33740;SDS011;20065;48.380;10.892;2022-12-29T03:42:45;2.85;;;1.23;;
33740;SDS011;20065;48.380;10.892;2022-12-29T03:45:33;2.50;;;1.10;;
33740;SDS011;20065;48.380;10.892;2022-12-29T03:48:19;2.65;;;0.98;;
33740;SDS011;20065;48.380;10.892;2022-12-29T03:51:07;3.33;;;1.20;;
33740;SDS011;20065;48.380;10.892;2022-12-29T03:53:53;3.05;;;1.33;;
33740;SDS011;20065;48.380;10.892;2022-12-29T03:56:40;2.60;;;1.17;;
33740;SDS011;20065;48.380;10.892;2022-12-29T03:59:26;3.22;;;1.02;;
33740;SDS011;20065;48.380;10.892;2022-12-29T04:02:13;3.50;;;1.13;;
33740;SDS011;20065;48.380;10.892;2022-12-29T04:05:00;4.07;;;1.50;;
33740;SDS011;20065;48.380;10.892;2022-12-29T04:07:46;2.75;;;1.08;;
33740;SDS011;20065;48.380;10.892;2022-12-29T04:10:33;2.97;;;1.15;;
33740;SDS011;20065;48.380;10.892;2022-12-29T04:13:21;3.10;;;1.10;;
33740;SDS011;20065;48.380;10.892;2022-12-29T04:16:08;4.82;;;1.00;;
33740;SDS011;20065;48.380;10.892;2022-12-29T04:18:56;4.40;;;1.13;;
33740;SDS011;20065;48.380;10.892;2022-12-29T04:21:42;4.53;;;2.13;;
33740;SDS011;20065;48.380;10.892;2022-12-29T04:24:29;3.45;;;1.10;;
33740;SDS011;20065;48.380;10.892;2022-12-29T04:27:15;3.03;;;1.35;;
33740;SDS011;20065;48.380;10.892;2022-12-29T04:30:21;4.55;;;1.52;;
33740;SDS011;20065;48.380;10.892;2022-12-29T04:33:19;5.05;;;1.55;;
33740;SDS011;20065;48.380;10.892;2022-12-29T04:36:06;2.85;;;1.35;;
33740;SDS011;20065;48.380;10.892;2022-12-29T04:38:53;3.67;;;1.25;;
33740;SDS011;20065;48.380;10.892;2022-12-29T04:41:40;2.80;;;1.20;;
33740;SDS011;20065;48.380;10.892;2022-12-29T04:44:29;4.50;;;1.25;;
33740;SDS011;20065;48.380;10.892;2022-12-29T04:47:15;3.53;;;1.10;;
33740;SDS011;20065;48.380;10.892;2022-12-29T04:50:19;3.72;;;1.00;;
33740;SDS011;20065;48.380;10.892;2022-12-29T04:53:37;2.45;;;1.00;;
33740;SDS011;20065;48.380;10.892;2022-12-29T04:56:23;5.03;;;1.40;;
33740;SDS011;20065;48.380;10.892;2022-12-29T04:59:09;3.10;;;1.20;;
33740;SDS011;20065;48.380;10.892;2022-12-29T05:01:55;2.97;;;1.38;;
33740;SDS011;20065;48.380;10.892;2022-12-29T05:04:42;4.10;;;1.20;;
33740;SDS011;20065;48.380;10.892;2022-12-29T05:07:28;2.90;;;1.10;;
33740;SDS011;20065;48.380;10.892;2022-12-29T05:10:15;2.50;;;1.30;;
33740;SDS011;20065;48.380;10.892;2022-12-29T05:13:02;2.80;;;1.17;;
33740;SDS011;20065;48.380;10.892;2022-12-29T05:15:52;2.60;;;0.93;;
33740;SDS011;20065;48.380;10.892;2022-12-29T05:18:39;4.43;;;1.02;;
33740;SDS011;20065;48.380;10.892;2022-12-29T05:21:27;3.03;;;1.30;;
33740;SDS011;20065;48.380;10.892;2022-12-29T05:24:14;3.63;;;1.02;;
33740;SDS011;20065;48.380;10.892;2022-12-29T05:27:00;2.60;;;1.00;;
33740;SDS011;20065;48.380;10.892;2022-12-29T05:30:03;13.50;;;1.48;;
33740;SDS011;20065;48.380;10.892;2022-12-29T05:32:49;3.67;;;1.20;;
33740;SDS011;20065;48.380;10.892;2022-12-29T05:35:37;3.05;;;1.10;;
33740;SDS011;20065;48.380;10.892;2022-12-29T05:38:23;3.65;;;1.08;;
33740;SDS011;20065;48.380;10.892;2022-12-29T05:41:09;4.55;;;1.40;;
33740;SDS011;20065;48.380;10.892;2022-12-29T05:44:19;5.65;;;1.50;;
33740;SDS011;20065;48.380;10.892;2022-12-29T05:47:34;3.22;;;0.85;;
33740;SDS011;20065;48.380;10.892;2022-12-29T05:50:46;3.53;;;1.45;;
33740;SDS011;20065;48.380;10.892;2022-12-29T05:53:35;2.90;;;0.90;;
33740;SDS011;20065;48.380;10.892;2022-12-29T05:56:21;2.75;;;1.00;;
33740;SDS011;20065;48.380;10.892;2022-12-29T05:59:14;3.65;;;0.95;;
33740;SDS011;20065;48.380;10.892;2022-12-29T06:02:01;3.25;;;1.20;;
33740;SDS011;20065;48.380;10.892;2022-12-29T06:04:47;3.42;;;1.02;;
33740;SDS011;20065;48.380;10.892;2022-12-29T06:07:33;2.63;;;1.00;;
33740;SDS011;20065;48.380;10.892;2022-12-29T06:10:20;2.92;;;0.98;;
33740;SDS011;20065;48.380;10.892;2022-12-29T06:13:14;2.90;;;1.10;;
33740;SDS011;20065;48.380;10.892;2022-12-29T06:16:03;3.50;;;1.38;;
33740;SDS011;20065;48.380;10.892;2022-12-29T06:18:50;2.75;;;1.40;;
33740;SDS011;20065;48.380;10.892;2022-12-29T06:21:36;2.97;;;1.30;;
33740;SDS011;20065;48.380;10.892;2022-12-29T06:24:23;3.97;;;1.80;;
33740;SDS011;20065;48.380;10.892;2022-12-29T06:27:09;3.40;;;1.30;;
33740;SDS011;20065;48.380;10.892;2022-12-29T06:29:57;2.70;;;1.05;;
33740;SDS011;20065;48.380;10.892;2022-12-29T06:32:43;2.35;;;0.98;;
33740;SDS011;20065;48.380;10.892;2022-12-29T06:35:31;4.05;;;1.50;;
33740;SDS011;20065;48.380;10.892;2022-12-29T06:38:18;3.95;;;1.30;;
33740;SDS011;20065;48.380;10.892;2022-12-29T06:41:04;3.40;;;1.50;;
33740;SDS011;20065;48.380;10.892;2022-12-29T06:44:29;4.28;;;1.77;;
33740;SDS011;20065;48.380;10.892;2022-12-29T06:47:25;4.47;;;1.70;;
33740;SDS011;20065;48.380;10.892;2022-12-29T06:50:11;4.55;;;1.50;;
33740;SDS011;20065;48.380;10.892;2022-12-29T06:52:57;3.90;;;1.70;;
33740;SDS011;20065;48.380;10.892;2022-12-29T06:55:43;5.18;;;1.67;;
33740;SDS011;20065;48.380;10.892;2022-12-29T06:58:29;4.03;;;1.55;;
33740;SDS011;20065;48.380;10.892;2022-12-29T07:01:15;3.30;;;1.27;;
33740;SDS011;20065;48.380;10.892;2022-12-29T07:04:02;2.90;;;1.40;;
33740;SDS011;20065;48.380;10.892;2022-12-29T07:06:48;7.47;;;1.30;;
33740;SDS011;20065;48.380;10.892;2022-12-29T07:09:34;3.97;;;1.60;;
33740;SDS011;20065;48.380;10.892;2022-12-29T07:12:21;3.92;;;1.95;;
33740;SDS011;20065;48.380;10.892;2022-12-29T07:15:07;3.95;;;1.67;;
33740;SDS011;20065;48.380;10.892;2022-12-29T07:17:53;3.63;;;1.67;;
33740;SDS011;20065;48.380;10.892;2022-12-29T07:20:39;5.00;;;2.13;;
33740;SDS011;20065;48.380;10.892;2022-12-29T07:23:26;3.75;;;1.65;;
33740;SDS011;20065;48.380;10.892;2022-12-29T07:26:13;5.13;;;2.38;;
33740;SDS011;20065;48.380;10.892;2022-12-29T07:29:00;3.80;;;1.52;;
33740;SDS011;20065;48.380;10.892;2022-12-29T07:31:47;3.92;;;1.90;;
33740;SDS011;20065;48.380;10.892;2022-12-29T07:34:33;4.03;;;1.55;;
33740;SDS011;20065;48.380;10.892;2022-12-29T07:37:19;4.20;;;1.30;;
33740;SDS011;20065;48.380;10.892;2022-12-29T07:40:05;3.15;;;1.40;;
33740;SDS011;20065;48.380;10.892;2022-12-29T07:42:52;3.90;;;1.58;;
33740;SDS011;20065;48.380;10.892;2022-12-29T07:45:47;4.13;;;1.38;;
33740;SDS011;20065;48.380;10.892;2022-12-29T07:48:36;4.75;;;1.63;;
33740;SDS011;20065;48.380;10.892;2022-12-29T07:51:23;4.05;;;1.45;;
33740;SDS011;20065;48.380;10.892;2022-12-29T07:54:09;6.82;;;1.95;;
33740;SDS011;20065;48.380;10.892;2022-12-29T07:56:55;5.43;;;1.83;;
33740;SDS011;20065;48.380;10.892;2022-12-29T07:59:43;4.65;;;1.50;;
33740;SDS011;20065;48.380;10.892;2022-12-29T08:02:29;4.35;;;1.70;;
33740;SDS011;20065;48.380;10.892;2022-12-29T08:05:15;4.38;;;1.58;;
33740;SDS011;20065;48.380;10.892;2022-12-29T08:08:01;3.15;;;1.40;;
33740;SDS011;20065;48.380;10.892;2022-12-29T08:10:48;3.13;;;1.38;;
33740;SDS011;20065;48.380;10.892;2022-12-29T08:13:34;3.53;;;1.70;;
33740;SDS011;20065;48.380;10.892;2022-12-29T08:16:20;4.20;;;1.15;;
33740;SDS011;20065;48.380;10.892;2022-12-29T08:19:07;5.65;;;1.70;;
33740;SDS011;20065;48.380;10.892;2022-12-29T08:21:55;3.50;;;1.42;;
33740;SDS011;20065;48.380;10.892;2022-12-29T08:24:42;4.95;;;1.90;;
33740;SDS011;20065;48.380;10.892;2022-12-29T08:27:28;5.00;;;1.85;;
33740;SDS011;20065;48.380;10.892;2022-12-29T08:30:14;5.45;;;1.92;;
33740;SDS011;20065;48.380;10.892;2022-12-29T08:33:01;5.30;;;1.67;;
33740;SDS011;20065;48.380;10.892;2022-12-29T08:35:48;5.65;;;2.00;;
33740;SDS011;20065;48.380;10.892;2022-12-29T08:38:34;5.13;;;1.77;;
33740;SDS011;20065;48.380;10.892;2022-12-29T08:41:20;5.68;;;2.15;;
33740;SDS011;20065;48.380;10.892;2022-12-29T08:44:08;5.05;;;1.40;;
33740;SDS011;20065;48.380;10.892;2022-12-29T08:46:57;7.68;;;1.40;;
33740;SDS011;20065;48.380;10.892;2022-12-29T08:49:43;4.07;;;1.85;;
33740;SDS011;20065;48.380;10.892;2022-12-29T08:52:30;4.03;;;1.75;;
33740;SDS011;20065;48.380;10.892;2022-12-29T08:55:16;3.72;;;1.83;;
33740;SDS011;20065;48.380;10.892;2022-12-29T08:58:03;5.57;;;1.83;;
33740;SDS011;20065;48.380;10.892;2022-12-29T09:00:51;8.80;;;2.45;;
33740;SDS011;20065;48.380;10.892;2022-12-29T09:03:41;5.38;;;2.15;;
33740;SDS011;20065;48.380;10.892;2022-12-29T09:06:27;3.67;;;1.58;;
33740;SDS011;20065;48.380;10.892;2022-12-29T09:09:14;3.80;;;1.70;;
33740;SDS011;20065;48.380;10.892;2022-12-29T09:12:03;4.18;;;1.55;;
33740;SDS011;20065;48.380;10.892;2022-12-29T09:14:49;4.75;;;2.20;;
33740;SDS011;20065;48.380;10.892;2022-12-29T09:17:36;4.97;;;1.73;;
33740;SDS011;20065;48.380;10.892;2022-12-29T09:20:31;4.90;;;2.08;;
33740;SDS011;20065;48.380;10.892;2022-12-29T09:23:17;4.05;;;1.65;;
33740;SDS011;20065;48.380;10.892;2022-12-29T09:26:04;4.50;;;1.85;;
33740;SDS011;20065;48.380;10.892;2022-12-29T09:28:50;4.55;;;1.80;;
33740;SDS011;20065;48.380;10.892;2022-12-29T09:31:36;4.95;;;1.73;;
33740;SDS011;20065;48.380;10.892;2022-12-29T09:34:22;4.03;;;1.60;;
33740;SDS011;20065;48.380;10.892;2022-12-29T09:37:08;3.95;;;1.70;;
33740;SDS011;20065;48.380;10.892;2022-12-29T09:39:54;3.97;;;1.33;;
33740;SDS011;20065;48.380;10.892;2022-12-29T09:42:42;4.45;;;1.40;;
33740;SDS011;20065;48.380;10.892;2022-12-29T09:45:44;4.35;;;1.80;;
33740;SDS011;20065;48.380;10.892;2022-12-29T09:48:41;3.92;;;1.40;;
33740;SDS011;20065;48.380;10.892;2022-12-29T09:51:32;3.55;;;1.33;;
33740;SDS011;20065;48.380;10.892;2022-12-29T10:01:00;5.05;;;1.90;;
33740;SDS011;20065;48.380;10.892;2022-12-29T10:03:52;4.75;;;1.40;;
33740;SDS011;20065;48.380;10.892;2022-12-29T10:10:11;4.63;;;1.60;;
33740;SDS011;20065;48.380;10.892;2022-12-29T10:13:13;3.85;;;1.55;;
33740;SDS011;20065;48.380;10.892;2022-12-29T10:25:58;2.95;;;1.30;;
33740;SDS011;20065;48.380;10.892;2022-12-29T10:31:37;6.38;;;1.67;;
33740;SDS011;20065;48.380;10.892;2022-12-29T10:34:37;3.13;;;1.42;;
33740;SDS011;20065;48.380;10.892;2022-12-29T10:37:29;3.33;;;1.30;;
33740;SDS011;20065;48.380;10.892;2022-12-29T10:40:31;3.60;;;1.38;;
33740;SDS011;20065;48.380;10.892;2022-12-29T10:43:25;3.75;;;1.30;;
33740;SDS011;20065;48.380;10.892;2022-12-29T10:46:23;3.35;;;1.60;;
33740;SDS011;20065;48.380;10.892;2022-12-29T10:49:17;3.75;;;1.20;;
33740;SDS011;20065;48.380;10.892;2022-12-29T10:52:06;3.80;;;1.53;;
33740;SDS011;20065;48.380;10.892;2022-12-29T10:55:00;3.72;;;1.05;;
33740;SDS011;20065;48.380;10.892;2022-12-29T10:58:05;6.97;;;1.33;;
33740;SDS011;20065;48.380;10.892;2022-12-29T11:00:53;2.73;;;0.90;;
33740;SDS011;20065;48.380;10.892;2022-12-29T11:06:27;3.60;;;1.30;;
33740;SDS011;20065;48.380;10.892;2022-12-29T11:09:16;5.13;;;1.45;;
33740;SDS011;20065;48.380;10.892;2022-12-29T11:15:14;6.20;;;1.40;;
33740;SDS011;20065;48.380;10.892;2022-12-29T11:18:01;3.97;;;1.40;;
33740;SDS011;20065;48.380;10.892;2022-12-29T11:21:01;3.50;;;1.30;;
33740;SDS011;20065;48.380;10.892;2022-12-29T11:24:03;2.70;;;1.10;;
33740;SDS011;20065;48.380;10.892;2022-12-29T11:27:08;4.67;;;1.40;;
33740;SDS011;20065;48.380;10.892;2022-12-29T11:30:00;4.53;;;1.37;;
33740;SDS011;20065;48.380;10.892;2022-12-29T11:32:53;3.53;;;1.07;;
33740;SDS011;20065;48.380;10.892;2022-12-29T11:35:40;3.80;;;1.40;;
33740;SDS011;20065;48.380;10.892;2022-12-29T11:38:39;3.07;;;1.17;;
33740;SDS011;20065;48.380;10.892;2022-12-29T11:41:30;3.90;;;1.20;;
33740;SDS011;20065;48.380;10.892;2022-12-29T11:44:17;3.40;;;1.30;;
33740;SDS011;20065;48.380;10.892;2022-12-29T11:47:12;2.70;;;1.10;;
33740;SDS011;20065;48.380;10.892;2022-12-29T11:50:06;3.40;;;1.20;;
33740;SDS011;20065;48.380;10.892;2022-12-29T11:53:01;5.03;;;1.30;;
33740;SDS011;20065;48.380;10.892;2022-12-29T11:56:00;3.50;;;1.30;;
33740;SDS011;20065;48.380;10.892;2022-12-29T11:58:50;2.97;;;1.23;;
33740;SDS011;20065;48.380;10.892;2022-12-29T12:01:36;3.57;;;1.53;;
33740;SDS011;20065;48.380;10.892;2022-12-29T12:04:26;6.23;;;2.00;;
33740;SDS011;20065;48.380;10.892;2022-12-29T12:07:17;5.00;;;1.43;;
33740;SDS011;20065;48.380;10.892;2022-12-29T12:10:19;3.60;;;1.63;;
33740;SDS011;20065;48.380;10.892;2022-12-29T12:16:28;3.65;;;1.23;;
33740;SDS011;20065;48.380;10.892;2022-12-29T12:19:38;3.40;;;1.17;;
33740;SDS011;20065;48.380;10.892;2022-12-29T12:22:34;6.30;;;1.20;;
33740;SDS011;20065;48.380;10.892;2022-12-29T12:25:34;2.80;;;1.13;;
33740;SDS011;20065;48.380;10.892;2022-12-29T12:28:42;4.10;;;1.50;;
33740;SDS011;20065;48.380;10.892;2022-12-29T12:34:44;3.67;;;1.67;;
33740;SDS011;20065;48.380;10.892;2022-12-29T12:40:43;3.90;;;1.20;;
33740;SDS011;20065;48.380;10.892;2022-12-29T12:46:41;2.93;;;1.30;;
33740;SDS011;20065;48.380;10.892;2022-12-29T12:53:01;4.07;;;1.50;;
33740;SDS011;20065;48.380;10.892;2022-12-29T12:58:59;2.93;;;0.90;;
33740;SDS011;20065;48.380;10.892;2022-12-29T13:02:00;5.93;;;1.37;;
33740;SDS011;20065;48.380;10.892;2022-12-29T13:17:39;3.73;;;1.47;;
33740;SDS011;20065;48.380;10.892;2022-12-29T13:29:26;2.93;;;1.20;;
33740;SDS011;20065;48.380;10.892;2022-12-29T13:33:06;5.97;;;1.70;;
33740;SDS011;20065;48.380;10.892;2022-12-29T13:41:36;6.07;;;1.30;;
33740;SDS011;20065;48.380;10.892;2022-12-29T13:44:37;3.17;;;1.40;;
33740;SDS011;20065;48.380;10.892;2022-12-29T13:47:49;7.60;;;1.57;;
33740;SDS011;20065;48.380;10.892;2022-12-29T13:50:42;4.90;;;1.50;;
33740;SDS011;20065;48.380;10.892;2022-12-29T14:00:03;10.13;;;1.20;;
33740;SDS011;20065;48.380;10.892;2022-12-29T14:06:16;3.53;;;1.20;;
33740;SDS011;20065;48.380;10.892;2022-12-29T14:12:38;5.87;;;1.30;;
33740;SDS011;20065;48.380;10.892;2022-12-29T14:15:27;5.40;;;1.40;;
33740;SDS011;20065;48.380;10.892;2022-12-29T14:18:20;2.50;;;1.23;;
33740;SDS011;20065;48.380;10.892;2022-12-29T14:21:21;3.10;;;1.40;;
33740;SDS011;20065;48.380;10.892;2022-12-29T14:30:06;7.05;;;1.50;;
33740;SDS011;20065;48.380;10.892;2022-12-29T14:33:30;2.83;;;1.58;;
33740;SDS011;20065;48.380;10.892;2022-12-29T14:36:19;3.20;;;1.50;;
33740;SDS011;20065;48.380;10.892;2022-12-29T14:42:14;3.00;;;1.10;;
33740;SDS011;20065;48.380;10.892;2022-12-29T14:45:23;3.75;;;1.45;;
33740;SDS011;20065;48.380;10.892;2022-12-29T14:51:17;5.53;;;1.33;;
33740;SDS011;20065;48.380;10.892;2022-12-29T15:06:09;3.95;;;1.20;;
33740;SDS011;20065;48.380;10.892;2022-12-29T15:09:06;3.23;;;1.27;;
33740;SDS011;20065;48.380;10.892;2022-12-29T15:12:21;4.15;;;1.10;;
33740;SDS011;20065;48.380;10.892;2022-12-29T15:15:21;2.95;;;1.25;;
33740;SDS011;20065;48.380;10.892;2022-12-29T15:18:21;3.45;;;1.25;;
33740;SDS011;20065;48.380;10.892;2022-12-29T15:21:15;4.15;;;1.38;;
33740;SDS011;20065;48.380;10.892;2022-12-29T15:24:05;3.88;;;1.40;;
33740;SDS011;20065;48.380;10.892;2022-12-29T15:26:52;4.20;;;1.40;;
33740;SDS011;20065;48.380;10.892;2022-12-29T15:29:41;3.53;;;1.20;;
33740;SDS011;20065;48.380;10.892;2022-12-29T15:32:45;3.10;;;1.80;;
33740;SDS011;20065;48.380;10.892;2022-12-29T15:35:34;5.82;;;1.90;;
33740;SDS011;20065;48.380;10.892;2022-12-29T15:38:27;5.68;;;1.90;;
33740;SDS011;20065;48.380;10.892;2022-12-29T15:44:43;6.10;;;1.58;;
33740;SDS011;20065;48.380;10.892;2022-12-29T15:47:29;3.45;;;1.45;;
33740;SDS011;20065;48.380;10.892;2022-12-29T15:50:23;3.95;;;1.35;;
33740;SDS011;20065;48.380;10.892;2022-12-29T15:53:18;4.25;;;1.70;;
33740;SDS011;20065;48.380;10.892;2022-12-29T15:56:09;5.72;;;2.00;;
33740;SDS011;20065;48.380;10.892;2022-12-29T15:58:56;3.42;;;1.40;;
33740;SDS011;20065;48.380;10.892;2022-12-29T16:01:42;3.53;;;1.67;;
33740;SDS011;20065;48.380;10.892;2022-12-29T16:04:29;5.75;;;2.25;;
33740;SDS011;20065;48.380;10.892;2022-12-29T16:07:28;3.30;;;1.60;;
33740;SDS011;20065;48.380;10.892;2022-12-29T16:10:26;3.50;;;1.52;;
33740;SDS011;20065;48.380;10.892;2022-12-29T16:13:32;5.32;;;2.50;;
33740;SDS011;20065;48.380;10.892;2022-12-29T16:16:31;6.07;;;2.80;;
33740;SDS011;20065;48.380;10.892;2022-12-29T16:22:32;5.95;;;2.88;;
33740;SDS011;20065;48.380;10.892;2022-12-29T16:28:20;5.47;;;2.55;;
33740;SDS011;20065;48.380;10.892;2022-12-29T16:31:18;5.32;;;2.42;;
33740;SDS011;20065;48.380;10.892;2022-12-29T16:37:28;4.55;;;2.20;;
33740;SDS011;20065;48.380;10.892;2022-12-29T16:40:29;4.35;;;1.73;;
33740;SDS011;20065;48.380;10.892;2022-12-29T16:43:35;4.35;;;2.17;;
33740;SDS011;20065;48.380;10.892;2022-12-29T16:46:30;5.15;;;1.77;;
33740;SDS011;20065;48.380;10.892;2022-12-29T16:49:16;6.30;;;1.80;;
33740;SDS011;20065;48.380;10.892;2022-12-29T16:55:04;8.63;;;2.10;;
33740;SDS011;20065;48.380;10.892;2022-12-29T16:57:52;4.20;;;2.00;;
33740;SDS011;20065;48.380;10.892;2022-12-29T17:00:44;4.38;;;1.60;;
33740;SDS011;20065;48.380;10.892;2022-12-29T17:03:37;5.18;;;2.10;;
33740;SDS011;20065;48.380;10.892;2022-12-29T17:06:37;6.55;;;1.83;;
33740;SDS011;20065;48.380;10.892;2022-12-29T17:09:24;3.80;;;1.90;;
33740;SDS011;20065;48.380;10.892;2022-12-29T17:12:17;4.03;;;2.00;;
33740;SDS011;20065;48.380;10.892;2022-12-29T17:18:11;6.18;;;1.60;;
33740;SDS011;20065;48.380;10.892;2022-12-29T17:20:58;4.15;;;1.92;;
33740;SDS011;20065;48.380;10.892;2022-12-29T17:23:44;5.05;;;1.92;;
33740;SDS011;20065;48.380;10.892;2022-12-29T17:26:30;5.15;;;1.88;;
33740;SDS011;20065;48.380;10.892;2022-12-29T17:29:36;5.10;;;1.75;;
33740;SDS011;20065;48.380;10.892;2022-12-29T17:32:25;4.20;;;1.75;;
33740;SDS011;20065;48.380;10.892;2022-12-29T17:35:15;3.53;;;1.60;;
33740;SDS011;20065;48.380;10.892;2022-12-29T17:38:02;5.82;;;1.70;;
33740;SDS011;20065;48.380;10.892;2022-12-29T17:41:13;7.40;;;3.45;;
33740;SDS011;20065;48.380;10.892;2022-12-29T17:44:00;4.40;;;2.70;;
33740;SDS011;20065;48.380;10.892;2022-12-29T17:46:47;4.60;;;1.83;;
33740;SDS011;20065;48.380;10.892;2022-12-29T17:49:33;3.72;;;1.55;;
33740;SDS011;20065;48.380;10.892;2022-12-29T17:52:21;4.35;;;1.70;;
33740;SDS011;20065;48.380;10.892;2022-12-29T17:55:17;4.43;;;1.63;;
33740;SDS011;20065;48.380;10.892;2022-12-29T17:58:26;10.20;;;2.10;;
33740;SDS011;20065;48.380;10.892;2022-12-29T18:01:16;6.78;;;1.65;;
33740;SDS011;20065;48.380;10.892;2022-12-29T18:04:06;6.53;;;1.65;;
33740;SDS011;20065;48.380;10.892;2022-12-29T18:06:56;3.70;;;1.88;;
33740;SDS011;20065;48.380;10.892;2022-12-29T18:09:42;7.20;;;2.20;;
33740;SDS011;20065;48.380;10.892;2022-12-29T18:12:30;4.30;;;1.55;;
33740;SDS011;20065;48.380;10.892;2022-12-29T18:15:23;4.15;;;1.63;;
33740;SDS011;20065;48.380;10.892;2022-12-29T18:18:12;3.28;;;1.42;;
33740;SDS011;20065;48.380;10.892;2022-12-29T18:21:00;7.75;;;2.00;;
33740;SDS011;20065;48.380;10.892;2022-12-29T18:23:46;3.10;;;1.40;;
33740;SDS011;20065;48.380;10.892;2022-12-29T18:26:33;3.20;;;1.40;;
33740;SDS011;20065;48.380;10.892;2022-12-29T18:29:22;3.35;;;1.48;;
33740;SDS011;20065;48.380;10.892;2022-12-29T18:32:09;4.80;;;1.25;;
33740;SDS011;20065;48.380;10.892;2022-12-29T18:34:57;4.07;;;1.20;;
33740;SDS011;20065;48.380;10.892;2022-12-29T18:37:44;4.22;;;1.48;;
33740;SDS011;20065;48.380;10.892;2022-12-29T18:40:30;4.35;;;1.75;;
33740;SDS011;20065;48.380;10.892;2022-12-29T18:43:18;3.35;;;1.38;;
33740;SDS011;20065;48.380;10.892;2022-12-29T18:46:09;5.65;;;1.95;;
33740;SDS011;20065;48.380;10.892;2022-12-29T18:48:56;3.35;;;1.20;;
33740;SDS011;20065;48.380;10.892;2022-12-29T18:51:42;4.63;;;2.10;;
33740;SDS011;20065;48.380;10.892;2022-12-29T18:54:29;4.65;;;2.35;;
33740;SDS011;20065;48.380;10.892;2022-12-29T18:57:17;5.45;;;2.50;;
33740;SDS011;20065;48.380;10.892;2022-12-29T19:00:03;4.53;;;2.20;;
33740;SDS011;20065;48.380;10.892;2022-12-29T19:02:50;4.55;;;1.65;;
33740;SDS011;20065;48.380;10.892;2022-12-29T19:05:38;3.35;;;1.20;;
33740;SDS011;20065;48.380;10.892;2022-12-29T19:08:25;5.18;;;1.80;;
33740;SDS011;20065;48.380;10.892;2022-12-29T19:11:12;3.40;;;1.33;;
33740;SDS011;20065;48.380;10.892;2022-12-29T19:13:58;4.00;;;1.40;;
33740;SDS011;20065;48.380;10.892;2022-12-29T19:16:44;3.03;;;1.40;;
33740;SDS011;20065;48.380;10.892;2022-12-29T19:19:31;4.82;;;2.20;;
33740;SDS011;20065;48.380;10.892;2022-12-29T19:22:17;4.07;;;1.80;;
33740;SDS011;20065;48.380;10.892;2022-12-29T19:25:04;4.55;;;2.13;;
33740;SDS011;20065;48.380;10.892;2022-12-29T19:27:53;4.35;;;2.42;;
33740;SDS011;20065;48.380;10.892;2022-12-29T19:30:43;3.80;;;1.90;;
33740;SDS011;20065;48.380;10.892;2022-12-29T19:33:30;5.47;;;2.45;;
33740;SDS011;20065;48.380;10.892;2022-12-29T19:36:16;7.00;;;3.15;;
33740;SDS011;20065;48.380;10.892;2022-12-29T19:39:06;5.65;;;1.90;;